sensor_id;sensor_type;location;lat;lon;timestamp;pressure;altitude;pressure_sealevel;temperature;humidity
64886;BME280;51514;52.206;5.114;2023-07-08T00:00:11;101839.00;;;24.46;43.71
64886;BME280;51514;52.206;5.114;2023-07-08T00:02:37;101839.41;;;24.50;43.50
64886;BME280;51514;52.206;5.114;2023-07-08T00:05:02;101827.13;;;24.46;43.58
64886;BME280;51514;52.206;5.114;2023-07-08T00:07:28;101831.44;;;24.42;43.76
64886;BME280;51514;52.206;5.114;2023-07-08T00:09:53;101817.41;;;24.43;43.78
64886;BME280;51514;52.206;5.114;2023-07-08T00:12:19;101816.16;;;24.39;43.76
64886;BME280;51514;52.206;5.114;2023-07-08T00:14:44;101808.72;;;24.64;43.71
64886;BME280;51514;52.206;5.114;2023-07-08T00:17:11;101809.88;;;24.32;44.31
64886;BME280;51514;52.206;5.114;2023-07-08T00:19:38;101798.59;;;24.09;44.85
64886;BME280;51514;52.206;5.114;2023-07-08T00:22:13;101802.84;;;24.11;44.16
64886;BME280;51514;52.206;5.114;2023-07-08T00:24:41;101802.88;;;24.05;44.47
64886;BME280;51514;52.206;5.114;2023-07-08T00:27:09;101802.03;;;24.04;45.07
64886;BME280;51514;52.206;5.114;2023-07-08T00:29:35;101806.03;;;24.08;44.93
64886;BME280;51514;52.206;5.114;2023-07-08T00:32:01;101806.69;;;24.03;45.23
64886;BME280;51514;52.206;5.114;2023-07-08T00:34:26;101802.97;;;23.91;45.54
64886;BME280;51514;52.206;5.114;2023-07-08T00:36:51;101804.31;;;23.82;45.90
64886;BME280;51514;52.206;5.114;2023-07-08T00:39:17;101799.94;;;23.75;45.81
64886;BME280;51514;52.206;5.114;2023-07-08T00:41:43;101800.56;;;23.77;45.73
64886;BME280;51514;52.206;5.114;2023-07-08T00:44:12;101793.25;;;23.89;45.79
64886;BME280;51514;52.206;5.114;2023-07-08T00:46:48;101798.88;;;23.76;46.16
64886;BME280;51514;52.206;5.114;2023-07-08T00:49:52;101791.31;;;23.64;46.42
64886;BME280;51514;52.206;5.114;2023-07-08T00:52:26;101789.69;;;23.50;46.91
64886;BME280;51514;52.206;5.114;2023-07-08T00:54:58;101781.41;;;23.57;47.05
64886;BME280;51514;52.206;5.114;2023-07-08T00:57:26;101785.44;;;23.54;47.25
64886;BME280;51514;52.206;5.114;2023-07-08T01:00:04;101793.44;;;23.62;47.35
64886;BME280;51514;52.206;5.114;2023-07-08T01:02:33;101790.94;;;23.48;47.83
64886;BME280;51514;52.206;5.114;2023-07-08T01:05:12;101789.09;;;23.42;47.66
64886;BME280;51514;52.206;5.114;2023-07-08T01:07:41;101785.06;;;23.44;47.98
64886;BME280;51514;52.206;5.114;2023-07-08T01:10:10;101770.03;;;23.40;47.73
64886;BME280;51514;52.206;5.114;2023-07-08T01:12:48;101773.41;;;23.42;48.44
64886;BME280;51514;52.206;5.114;2023-07-08T01:15:16;101767.34;;;23.27;48.52
64886;BME280;51514;52.206;5.114;2023-07-08T01:17:43;101765.84;;;23.31;48.45
64886;BME280;51514;52.206;5.114;2023-07-08T01:20:09;101766.56;;;23.20;48.45
64886;BME280;51514;52.206;5.114;2023-07-08T01:22:40;101765.72;;;23.19;48.34
64886;BME280;51514;52.206;5.114;2023-07-08T01:25:07;101763.38;;;23.23;48.80
64886;BME280;51514;52.206;5.114;2023-07-08T01:27:37;101772.78;;;22.96;49.12
64886;BME280;51514;52.206;5.114;2023-07-08T01:30:04;101761.16;;;23.00;49.26
64886;BME280;51514;52.206;5.114;2023-07-08T01:32:31;101769.16;;;23.08;49.50
64886;BME280;51514;52.206;5.114;2023-07-08T01:34:59;101769.56;;;23.12;49.13
64886;BME280;51514;52.206;5.114;2023-07-08T01:42:45;101759.56;;;22.66;50.12
64886;BME280;51514;52.206;5.114;2023-07-08T01:45:12;101758.03;;;22.83;50.21
64886;BME280;51514;52.206;5.114;2023-07-08T01:47:38;101755.28;;;22.83;50.14
64886;BME280;51514;52.206;5.114;2023-07-08T01:50:05;101765.47;;;22.76;50.05
64886;BME280;51514;52.206;5.114;2023-07-08T01:52:31;101752.75;;;22.88;50.12
64886;BME280;51514;52.206;5.114;2023-07-08T01:54:57;101753.84;;;22.81;50.34
64886;BME280;51514;52.206;5.114;2023-07-08T01:57:22;101758.94;;;22.51;50.80
64886;BME280;51514;52.206;5.114;2023-07-08T01:59:48;101741.78;;;22.75;50.25
64886;BME280;51514;52.206;5.114;2023-07-08T02:02:13;101740.94;;;22.68;50.51
64886;BME280;51514;52.206;5.114;2023-07-08T02:04:38;101735.63;;;22.73;50.73
64886;BME280;51514;52.206;5.114;2023-07-08T02:07:04;101735.84;;;22.78;50.37
64886;BME280;51514;52.206;5.114;2023-07-08T02:09:30;101736.28;;;22.75;50.56
64886;BME280;51514;52.206;5.114;2023-07-08T02:11:55;101734.13;;;22.84;50.36
64886;BME280;51514;52.206;5.114;2023-07-08T02:14:21;101723.97;;;22.84;50.06
64886;BME280;51514;52.206;5.114;2023-07-08T02:16:47;101731.56;;;22.89;50.30
64886;BME280;51514;52.206;5.114;2023-07-08T02:19:13;101728.63;;;22.84;50.24
64886;BME280;51514;52.206;5.114;2023-07-08T02:21:38;101724.88;;;22.65;50.55
64886;BME280;51514;52.206;5.114;2023-07-08T02:24:04;101720.25;;;22.59;51.11
64886;BME280;51514;52.206;5.114;2023-07-08T02:26:30;101719.63;;;22.57;51.13
64886;BME280;51514;52.206;5.114;2023-07-08T02:28:58;101722.94;;;22.72;50.84
64886;BME280;51514;52.206;5.114;2023-07-08T02:31:24;101728.50;;;22.52;51.22
64886;BME280;51514;52.206;5.114;2023-07-08T02:33:51;101707.94;;;22.62;50.81
64886;BME280;51514;52.206;5.114;2023-07-08T02:36:16;101717.25;;;22.80;50.57
64886;BME280;51514;52.206;5.114;2023-07-08T02:38:41;101708.78;;;22.75;50.57
64886;BME280;51514;52.206;5.114;2023-07-08T02:41:07;101712.56;;;22.74;50.76
64886;BME280;51514;52.206;5.114;2023-07-08T02:43:32;101712.59;;;22.81;50.58
64886;BME280;51514;52.206;5.114;2023-07-08T02:45:58;101709.00;;;22.80;50.22
64886;BME280;51514;52.206;5.114;2023-07-08T02:48:23;101720.19;;;22.79;50.23
64886;BME280;51514;52.206;5.114;2023-07-08T02:50:48;101709.38;;;22.90;50.43
64886;BME280;51514;52.206;5.114;2023-07-08T02:53:14;101711.28;;;22.90;49.96
64886;BME280;51514;52.206;5.114;2023-07-08T02:55:39;101703.00;;;22.90;50.55
64886;BME280;51514;52.206;5.114;2023-07-08T02:58:07;101708.09;;;22.86;50.14
64886;BME280;51514;52.206;5.114;2023-07-08T03:00:33;101705.56;;;22.91;50.01
64886;BME280;51514;52.206;5.114;2023-07-08T03:02:59;101706.41;;;22.85;50.66
64886;BME280;51514;52.206;5.114;2023-07-08T03:05:26;101701.16;;;22.77;50.63
64886;BME280;51514;52.206;5.114;2023-07-08T03:07:51;101702.50;;;22.55;51.55
64886;BME280;51514;52.206;5.114;2023-07-08T03:10:17;101706.28;;;22.54;51.39
64886;BME280;51514;52.206;5.114;2023-07-08T03:12:42;101698.94;;;22.41;51.81
64886;BME280;51514;52.206;5.114;2023-07-08T03:15:08;101701.69;;;22.41;51.48
64886;BME280;51514;52.206;5.114;2023-07-08T03:17:33;101707.00;;;22.30;51.88
64886;BME280;51514;52.206;5.114;2023-07-08T03:19:58;101700.91;;;22.28;52.16
64886;BME280;51514;52.206;5.114;2023-07-08T03:22:24;101706.16;;;22.36;51.71
64886;BME280;51514;52.206;5.114;2023-07-08T03:24:49;101714.59;;;22.34;51.65
64886;BME280;51514;52.206;5.114;2023-07-08T03:27:15;101717.72;;;22.51;51.46
64886;BME280;51514;52.206;5.114;2023-07-08T03:29:41;101711.16;;;22.58;50.87
64886;BME280;51514;52.206;5.114;2023-07-08T03:32:10;101708.88;;;22.49;51.43
64886;BME280;51514;52.206;5.114;2023-07-08T03:34:36;101716.94;;;22.24;51.97
64886;BME280;51514;52.206;5.114;2023-07-08T03:37:01;101711.88;;;22.28;51.87
64886;BME280;51514;52.206;5.114;2023-07-08T03:39:27;101719.03;;;22.35;51.75
64886;BME280;51514;52.206;5.114;2023-07-08T03:41:52;101712.28;;;22.38;51.75
64886;BME280;51514;52.206;5.114;2023-07-08T03:44:18;101713.13;;;22.38;51.42
64886;BME280;51514;52.206;5.114;2023-07-08T03:46:46;101712.66;;;22.48;51.39
64886;BME280;51514;52.206;5.114;2023-07-08T03:49:13;101716.88;;;22.50;51.39
64886;BME280;51514;52.206;5.114;2023-07-08T03:51:40;101710.31;;;22.51;51.50
64886;BME280;51514;52.206;5.114;2023-07-08T03:54:09;101718.63;;;22.38;51.59
64886;BME280;51514;52.206;5.114;2023-07-08T03:56:36;101715.00;;;22.44;51.68
64886;BME280;51514;52.206;5.114;2023-07-08T03:59:02;101709.63;;;22.69;50.94
64886;BME280;51514;52.206;5.114;2023-07-08T04:01:27;101715.63;;;22.40;51.72
64886;BME280;51514;52.206;5.114;2023-07-08T04:03:54;101713.56;;;22.35;51.63
64886;BME280;51514;52.206;5.114;2023-07-08T04:06:20;101716.09;;;22.37;51.91
64886;BME280;51514;52.206;5.114;2023-07-08T04:08:46;101717.81;;;22.25;52.14
64886;BME280;51514;52.206;5.114;2023-07-08T04:11:17;101714.84;;;22.19;52.09
64886;BME280;51514;52.206;5.114;2023-07-08T04:13:43;101716.13;;;22.17;52.26
64886;BME280;51514;52.206;5.114;2023-07-08T04:16:38;101719.28;;;22.20;52.33
64886;BME280;51514;52.206;5.114;2023-07-08T04:18:57;101721.59;;;22.37;52.19
64886;BME280;51514;52.206;5.114;2023-07-08T04:21:24;101723.69;;;22.35;51.99
64886;BME280;51514;52.206;5.114;2023-07-08T04:23:53;101724.13;;;22.32;51.83
64886;BME280;51514;52.206;5.114;2023-07-08T04:26:19;101712.28;;;22.38;52.07
64886;BME280;51514;52.206;5.114;2023-07-08T04:28:44;101713.53;;;22.42;51.69
64886;BME280;51514;52.206;5.114;2023-07-08T04:31:09;101715.22;;;22.43;51.59
64886;BME280;51514;52.206;5.114;2023-07-08T04:33:35;101720.28;;;22.39;52.10
64886;BME280;51514;52.206;5.114;2023-07-08T04:36:01;101719.47;;;22.39;51.55
64886;BME280;51514;52.206;5.114;2023-07-08T04:38:26;101715.63;;;22.46;51.74
64886;BME280;51514;52.206;5.114;2023-07-08T04:40:53;101714.97;;;22.51;51.37
64886;BME280;51514;52.206;5.114;2023-07-08T04:43:20;101715.38;;;22.54;51.14
64886;BME280;51514;52.206;5.114;2023-07-08T04:45:49;101722.16;;;22.58;51.22
64886;BME280;51514;52.206;5.114;2023-07-08T04:48:17;101715.13;;;22.69;50.97
64886;BME280;51514;52.206;5.114;2023-07-08T04:50:49;101712.16;;;22.71;50.86
64886;BME280;51514;52.206;5.114;2023-07-08T04:53:15;101722.53;;;22.69;50.46
64886;BME280;51514;52.206;5.114;2023-07-08T04:55:47;101724.25;;;23.14;49.98
64886;BME280;51514;52.206;5.114;2023-07-08T04:58:13;101718.47;;;22.84;50.49
64886;BME280;51514;52.206;5.114;2023-07-08T05:00:39;101716.34;;;22.86;50.22
64886;BME280;51514;52.206;5.114;2023-07-08T05:03:04;101717.41;;;22.92;50.62
64886;BME280;51514;52.206;5.114;2023-07-08T05:05:29;101726.63;;;23.04;50.61
64886;BME280;51514;52.206;5.114;2023-07-08T05:07:55;101716.09;;;22.94;49.86
64886;BME280;51514;52.206;5.114;2023-07-08T05:10:20;101716.31;;;22.93;50.38
64886;BME280;51514;52.206;5.114;2023-07-08T05:12:47;101727.72;;;22.97;50.41
64886;BME280;51514;52.206;5.114;2023-07-08T05:15:13;101708.22;;;23.05;49.95
64886;BME280;51514;52.206;5.114;2023-07-08T05:17:39;101711.31;;;23.15;50.22
64886;BME280;51514;52.206;5.114;2023-07-08T05:20:10;101710.72;;;23.13;50.00
64886;BME280;51514;52.206;5.114;2023-07-08T05:22:36;101710.25;;;23.16;49.57
64886;BME280;51514;52.206;5.114;2023-07-08T05:25:02;101710.25;;;23.22;49.55
64886;BME280;51514;52.206;5.114;2023-07-08T05:27:28;101705.75;;;23.28;49.53
64886;BME280;51514;52.206;5.114;2023-07-08T05:29:54;101708.91;;;23.32;49.38
64886;BME280;51514;52.206;5.114;2023-07-08T05:32:19;101718.53;;;23.47;49.23
64886;BME280;51514;52.206;5.114;2023-07-08T05:34:45;101709.84;;;23.50;48.97
64886;BME280;51514;52.206;5.114;2023-07-08T05:37:12;101714.63;;;23.68;48.64
64886;BME280;51514;52.206;5.114;2023-07-08T05:39:37;101711.91;;;23.61;48.58
64886;BME280;51514;52.206;5.114;2023-07-08T05:42:03;101714.38;;;23.70;48.72
64886;BME280;51514;52.206;5.114;2023-07-08T05:44:28;101713.25;;;23.77;48.84
64886;BME280;51514;52.206;5.114;2023-07-08T05:46:54;101720.00;;;23.81;48.30
64886;BME280;51514;52.206;5.114;2023-07-08T05:49:19;101720.78;;;23.88;48.66
64886;BME280;51514;52.206;5.114;2023-07-08T05:51:44;101716.81;;;24.02;48.37
64886;BME280;51514;52.206;5.114;2023-07-08T05:54:10;101712.13;;;24.10;47.92
64886;BME280;51514;52.206;5.114;2023-07-08T05:56:36;101713.94;;;24.22;48.20
64886;BME280;51514;52.206;5.114;2023-07-08T05:59:02;101716.25;;;24.19;48.08
64886;BME280;51514;52.206;5.114;2023-07-08T06:01:28;101713.50;;;24.19;47.87
64886;BME280;51514;52.206;5.114;2023-07-08T06:03:53;101717.44;;;24.29;48.10
64886;BME280;51514;52.206;5.114;2023-07-08T06:06:18;101717.59;;;24.34;48.08
64886;BME280;51514;52.206;5.114;2023-07-08T06:08:44;101714.56;;;24.43;48.16
64886;BME280;51514;52.206;5.114;2023-07-08T06:11:09;101717.22;;;24.49;47.93
64886;BME280;51514;52.206;5.114;2023-07-08T06:13:34;101713.78;;;24.54;48.27
64886;BME280;51514;52.206;5.114;2023-07-08T06:16:00;101719.31;;;24.54;47.82
64886;BME280;51514;52.206;5.114;2023-07-08T06:18:25;101718.69;;;24.70;48.04
64886;BME280;51514;52.206;5.114;2023-07-08T06:20:53;101716.09;;;24.75;47.62
64886;BME280;51514;52.206;5.114;2023-07-08T06:23:18;101718.06;;;24.86;47.71
64886;BME280;51514;52.206;5.114;2023-07-08T06:25:43;101716.25;;;24.98;47.09
64886;BME280;51514;52.206;5.114;2023-07-08T06:28:09;101719.22;;;25.27;46.78
64886;BME280;51514;52.206;5.114;2023-07-08T06:30:34;101720.31;;;25.67;45.91
64886;BME280;51514;52.206;5.114;2023-07-08T06:32:59;101724.69;;;26.10;45.73
64886;BME280;51514;52.206;5.114;2023-07-08T06:35:25;101719.16;;;26.10;45.15
64886;BME280;51514;52.206;5.114;2023-07-08T06:37:50;101735.03;;;26.14;44.52
64886;BME280;51514;52.206;5.114;2023-07-08T06:40:16;101733.34;;;26.25;43.99
64886;BME280;51514;52.206;5.114;2023-07-08T06:42:44;101727.22;;;26.23;43.86
64886;BME280;51514;52.206;5.114;2023-07-08T06:45:09;101736.47;;;26.40;43.71
64886;BME280;51514;52.206;5.114;2023-07-08T06:47:35;101725.41;;;26.52;43.54
64886;BME280;51514;52.206;5.114;2023-07-08T06:50:00;101726.84;;;26.54;43.00
64886;BME280;51514;52.206;5.114;2023-07-08T06:52:26;101733.19;;;26.67;44.24
64886;BME280;51514;52.206;5.114;2023-07-08T06:54:51;101727.81;;;26.60;44.06
64886;BME280;51514;52.206;5.114;2023-07-08T06:57:16;101728.16;;;26.64;43.37
64886;BME280;51514;52.206;5.114;2023-07-08T06:59:42;101725.59;;;26.74;43.37
64886;BME280;51514;52.206;5.114;2023-07-08T07:02:08;101709.72;;;26.81;43.61
64886;BME280;51514;52.206;5.114;2023-07-08T07:04:34;101718.22;;;26.91;42.90
64886;BME280;51514;52.206;5.114;2023-07-08T07:07:00;101714.34;;;27.04;42.90
64886;BME280;51514;52.206;5.114;2023-07-08T07:09:26;101716.44;;;27.25;42.75
64886;BME280;51514;52.206;5.114;2023-07-08T07:11:51;101717.22;;;27.54;42.72
64886;BME280;51514;52.206;5.114;2023-07-08T07:14:17;101712.66;;;27.76;41.10
64886;BME280;51514;52.206;5.114;2023-07-08T07:16:42;101712.81;;;27.86;41.01
64886;BME280;51514;52.206;5.114;2023-07-08T07:19:07;101709.19;;;27.69;41.67
64886;BME280;51514;52.206;5.114;2023-07-08T07:21:33;101704.75;;;27.68;42.48
64886;BME280;51514;52.206;5.114;2023-07-08T07:23:58;101700.88;;;27.69;42.90
64886;BME280;51514;52.206;5.114;2023-07-08T07:26:23;101709.00;;;27.59;42.29
64886;BME280;51514;52.206;5.114;2023-07-08T07:28:49;101701.28;;;27.61;42.79
64886;BME280;51514;52.206;5.114;2023-07-08T07:31:14;101701.06;;;27.79;43.49
64886;BME280;51514;52.206;5.114;2023-07-08T07:33:39;101693.41;;;27.86;41.83
64886;BME280;51514;52.206;5.114;2023-07-08T07:36:05;101692.47;;;27.97;41.64
64886;BME280;51514;52.206;5.114;2023-07-08T07:38:33;101702.53;;;28.04;41.46
64886;BME280;51514;52.206;5.114;2023-07-08T07:40:58;101706.00;;;28.11;41.69
64886;BME280;51514;52.206;5.114;2023-07-08T07:43:25;101710.75;;;28.15;40.28
64886;BME280;51514;52.206;5.114;2023-07-08T07:45:51;101711.78;;;28.26;41.08
64886;BME280;51514;52.206;5.114;2023-07-08T07:48:18;101705.53;;;28.36;41.68
64886;BME280;51514;52.206;5.114;2023-07-08T07:50:47;101695.03;;;28.38;41.06
64886;BME280;51514;52.206;5.114;2023-07-08T07:53:13;101692.75;;;28.34;39.85
64886;BME280;51514;52.206;5.114;2023-07-08T07:55:39;101696.50;;;28.45;40.72
64886;BME280;51514;52.206;5.114;2023-07-08T07:58:04;101695.50;;;28.51;40.34
64886;BME280;51514;52.206;5.114;2023-07-08T08:00:30;101694.41;;;28.96;39.41
64886;BME280;51514;52.206;5.114;2023-07-08T08:02:55;101689.13;;;29.21;39.75
64886;BME280;51514;52.206;5.114;2023-07-08T08:05:21;101689.94;;;28.73;39.56
64886;BME280;51514;52.206;5.114;2023-07-08T08:07:47;101684.53;;;28.83;40.83
64886;BME280;51514;52.206;5.114;2023-07-08T08:10:13;101679.94;;;28.94;39.88
64886;BME280;51514;52.206;5.114;2023-07-08T08:12:38;101686.59;;;28.93;39.64
64886;BME280;51514;52.206;5.114;2023-07-08T08:15:04;101677.94;;;28.89;39.18
64886;BME280;51514;52.206;5.114;2023-07-08T08:17:30;101689.16;;;28.99;40.01
64886;BME280;51514;52.206;5.114;2023-07-08T08:19:55;101680.91;;;29.04;39.01
64886;BME280;51514;52.206;5.114;2023-07-08T08:22:21;101683.53;;;29.16;38.40
64886;BME280;51514;52.206;5.114;2023-07-08T08:24:46;101683.22;;;29.39;38.08
64886;BME280;51514;52.206;5.114;2023-07-08T08:27:12;101685.94;;;29.61;37.76
64886;BME280;51514;52.206;5.114;2023-07-08T08:29:37;101691.06;;;29.80;37.86
64886;BME280;51514;52.206;5.114;2023-07-08T08:32:02;101691.72;;;29.92;38.82
64886;BME280;51514;52.206;5.114;2023-07-08T08:34:28;101695.19;;;30.04;38.36
64886;BME280;51514;52.206;5.114;2023-07-08T08:36:53;101695.47;;;30.07;36.57
64886;BME280;51514;52.206;5.114;2023-07-08T08:39:21;101698.09;;;30.24;37.74
64886;BME280;51514;52.206;5.114;2023-07-08T08:41:46;101705.81;;;30.64;38.16
64886;BME280;51514;52.206;5.114;2023-07-08T08:44:25;101706.28;;;31.08;37.95
64886;BME280;51514;52.206;5.114;2023-07-08T08:49:37;101707.63;;;31.06;36.37
64886;BME280;51514;52.206;5.114;2023-07-08T08:52:04;101709.38;;;31.12;37.83
64886;BME280;51514;52.206;5.114;2023-07-08T08:54:30;101714.09;;;31.16;36.32
64886;BME280;51514;52.206;5.114;2023-07-08T08:59:29;101715.25;;;31.31;36.52
64886;BME280;51514;52.206;5.114;2023-07-08T09:02:01;101721.69;;;31.41;36.12
64886;BME280;51514;52.206;5.114;2023-07-08T09:04:33;101716.66;;;31.38;39.03
64886;BME280;51514;52.206;5.114;2023-07-08T09:07:07;101714.19;;;31.47;35.85
64886;BME280;51514;52.206;5.114;2023-07-08T09:09:38;101713.06;;;31.53;36.37
64886;BME280;51514;52.206;5.114;2023-07-08T09:12:25;101704.13;;;31.61;35.17
64886;BME280;51514;52.206;5.114;2023-07-08T09:14:52;101707.81;;;31.77;36.74
64886;BME280;51514;52.206;5.114;2023-07-08T09:17:27;101704.72;;;32.19;35.59
64886;BME280;51514;52.206;5.114;2023-07-08T09:22:44;101695.91;;;33.20;32.46
64886;BME280;51514;52.206;5.114;2023-07-08T09:27:55;101699.28;;;33.61;34.37
64886;BME280;51514;52.206;5.114;2023-07-08T09:30:21;101700.34;;;33.65;33.67
64886;BME280;51514;52.206;5.114;2023-07-08T09:32:48;101696.63;;;33.41;34.18
64886;BME280;51514;52.206;5.114;2023-07-08T09:35:25;101706.78;;;33.22;34.90
64886;BME280;51514;52.206;5.114;2023-07-08T09:37:51;101699.03;;;33.14;33.86
64886;BME280;51514;52.206;5.114;2023-07-08T09:40:28;101695.97;;;33.10;34.25
64886;BME280;51514;52.206;5.114;2023-07-08T09:42:58;101691.75;;;33.13;34.44
64886;BME280;51514;52.206;5.114;2023-07-08T09:45:26;101698.28;;;32.98;33.94
64886;BME280;51514;52.206;5.114;2023-07-08T09:47:56;101697.47;;;32.97;34.34
64886;BME280;51514;52.206;5.114;2023-07-08T09:50:28;101696.28;;;33.04;34.86
64886;BME280;51514;52.206;5.114;2023-07-08T09:52:56;101690.63;;;33.14;34.87
64886;BME280;51514;52.206;5.114;2023-07-08T09:55:26;101693.94;;;33.21;33.32
64886;BME280;51514;52.206;5.114;2023-07-08T09:57:53;101687.78;;;33.29;32.96
64886;BME280;51514;52.206;5.114;2023-07-08T10:00:28;101692.75;;;33.37;33.34
64886;BME280;51514;52.206;5.114;2023-07-08T10:02:57;101697.47;;;33.42;31.52
64886;BME280;51514;52.206;5.114;2023-07-08T10:05:30;101704.41;;;33.44;33.63
64886;BME280;51514;52.206;5.114;2023-07-08T10:07:58;101710.63;;;33.41;33.35
64886;BME280;51514;52.206;5.114;2023-07-08T10:10:30;101706.78;;;33.22;33.23
64886;BME280;51514;52.206;5.114;2023-07-08T10:13:00;101702.31;;;33.21;34.61
64886;BME280;51514;52.206;5.114;2023-07-08T10:15:40;101701.78;;;33.24;36.78
64886;BME280;51514;52.206;5.114;2023-07-08T10:18:14;101697.03;;;33.19;34.20
64886;BME280;51514;52.206;5.114;2023-07-08T10:21:02;101689.75;;;33.23;33.52
64886;BME280;51514;52.206;5.114;2023-07-08T10:26:20;101684.38;;;33.32;35.81
64886;BME280;51514;52.206;5.114;2023-07-08T10:29:03;101688.16;;;33.51;35.12
64886;BME280;51514;52.206;5.114;2023-07-08T10:44:57;101686.03;;;33.72;30.74
64886;BME280;51514;52.206;5.114;2023-07-08T11:01:28;101667.63;;;34.48;31.81
64886;BME280;51514;52.206;5.114;2023-07-08T11:06:53;101665.47;;;34.63;32.78
64886;BME280;51514;52.206;5.114;2023-07-08T11:09:28;101667.22;;;34.59;30.67
64886;BME280;51514;52.206;5.114;2023-07-08T11:12:01;101668.09;;;34.55;29.42
64886;BME280;51514;52.206;5.114;2023-07-08T11:14:41;101671.34;;;34.62;29.81
64886;BME280;51514;52.206;5.114;2023-07-08T11:17:39;101663.19;;;34.89;30.82
64886;BME280;51514;52.206;5.114;2023-07-08T11:20:38;101667.72;;;34.85;27.46
64886;BME280;51514;52.206;5.114;2023-07-08T11:25:44;101664.84;;;34.90;31.45
64886;BME280;51514;52.206;5.114;2023-07-08T11:28:14;101668.19;;;34.92;30.26
64886;BME280;51514;52.206;5.114;2023-07-08T11:30:41;101667.06;;;34.93;29.69
64886;BME280;51514;52.206;5.114;2023-07-08T11:33:10;101666.91;;;35.03;30.36
64886;BME280;51514;52.206;5.114;2023-07-08T11:38:05;101662.13;;;35.23;29.99
64886;BME280;51514;52.206;5.114;2023-07-08T11:40:52;101659.31;;;35.23;29.08
64886;BME280;51514;52.206;5.114;2023-07-08T11:43:19;101660.44;;;35.22;28.28
64886;BME280;51514;52.206;5.114;2023-07-08T11:45:45;101655.84;;;35.31;29.40
64886;BME280;51514;52.206;5.114;2023-07-08T11:48:19;101662.22;;;35.36;29.57
64886;BME280;51514;52.206;5.114;2023-07-08T11:50:48;101662.13;;;35.23;28.36
64886;BME280;51514;52.206;5.114;2023-07-08T11:56:00;101655.97;;;35.21;29.25
64886;BME280;51514;52.206;5.114;2023-07-08T11:58:29;101657.63;;;35.22;27.41
64886;BME280;51514;52.206;5.114;2023-07-08T12:01:14;101659.47;;;35.31;29.21
64886;BME280;51514;52.206;5.114;2023-07-08T12:03:54;101654.41;;;35.33;29.61
64886;BME280;51514;52.206;5.114;2023-07-08T12:08:53;101654.53;;;35.42;29.89
64886;BME280;51514;52.206;5.114;2023-07-08T12:11:33;101650.00;;;35.46;31.48
64886;BME280;51514;52.206;5.114;2023-07-08T12:14:03;101644.75;;;35.39;29.93
64886;BME280;51514;52.206;5.114;2023-07-08T12:16:31;101647.19;;;35.46;29.27
64886;BME280;51514;52.206;5.114;2023-07-08T12:19:00;101639.59;;;35.46;28.83
64886;BME280;51514;52.206;5.114;2023-07-08T12:21:27;101640.63;;;35.50;29.62
64886;BME280;51514;52.206;5.114;2023-07-08T12:23:53;101639.72;;;35.55;30.79
64886;BME280;51514;52.206;5.114;2023-07-08T12:26:20;101637.56;;;35.66;29.98
64886;BME280;51514;52.206;5.114;2023-07-08T12:28:46;101629.81;;;35.76;30.19
64886;BME280;51514;52.206;5.114;2023-07-08T12:31:17;101632.63;;;35.76;30.47
64886;BME280;51514;52.206;5.114;2023-07-08T12:33:43;101631.53;;;35.72;27.84
64886;BME280;51514;52.206;5.114;2023-07-08T12:36:11;101637.25;;;35.67;29.99
64886;BME280;51514;52.206;5.114;2023-07-08T12:38:43;101623.22;;;35.67;30.22
64886;BME280;51514;52.206;5.114;2023-07-08T12:41:16;101629.03;;;35.71;33.11
64886;BME280;51514;52.206;5.114;2023-07-08T12:43:43;101616.16;;;35.70;31.08
64886;BME280;51514;52.206;5.114;2023-07-08T12:46:10;101623.69;;;35.74;32.71
64886;BME280;51514;52.206;5.114;2023-07-08T12:48:37;101627.03;;;35.76;31.85
64886;BME280;51514;52.206;5.114;2023-07-08T12:51:04;101623.06;;;35.77;31.40
64886;BME280;51514;52.206;5.114;2023-07-08T12:53:29;101624.97;;;35.63;30.73
64886;BME280;51514;52.206;5.114;2023-07-08T12:55:58;101622.16;;;35.63;29.85
64886;BME280;51514;52.206;5.114;2023-07-08T12:58:27;101623.84;;;35.64;29.73
64886;BME280;51514;52.206;5.114;2023-07-08T13:00:54;101620.13;;;35.69;30.39
64886;BME280;51514;52.206;5.114;2023-07-08T13:03:23;101615.34;;;35.69;30.18
64886;BME280;51514;52.206;5.114;2023-07-08T13:05:50;101622.84;;;35.74;29.07
64886;BME280;51514;52.206;5.114;2023-07-08T13:08:21;101616.97;;;35.70;27.50
64886;BME280;51514;52.206;5.114;2023-07-08T13:10:48;101622.00;;;35.73;26.32
64886;BME280;51514;52.206;5.114;2023-07-08T13:13:21;101614.69;;;35.72;27.56
64886;BME280;51514;52.206;5.114;2023-07-08T13:15:47;101619.22;;;35.73;28.32
64886;BME280;51514;52.206;5.114;2023-07-08T13:18:15;101620.31;;;35.72;27.93
64886;BME280;51514;52.206;5.114;2023-07-08T13:20:43;101618.06;;;35.74;28.37
64886;BME280;51514;52.206;5.114;2023-07-08T13:23:09;101615.19;;;35.79;30.28
64886;BME280;51514;52.206;5.114;2023-07-08T13:25:37;101613.72;;;35.82;30.67
64886;BME280;51514;52.206;5.114;2023-07-08T13:28:19;101616.47;;;36.42;29.83
64886;BME280;51514;52.206;5.114;2023-07-08T13:30:54;101613.66;;;36.01;28.88
64886;BME280;51514;52.206;5.114;2023-07-08T13:33:21;101618.91;;;36.02;29.98
64886;BME280;51514;52.206;5.114;2023-07-08T13:35:47;101620.72;;;35.98;28.90
64886;BME280;51514;52.206;5.114;2023-07-08T13:38:18;101616.22;;;35.97;28.10
64886;BME280;51514;52.206;5.114;2023-07-08T13:40:47;101624.22;;;36.04;29.96
64886;BME280;51514;52.206;5.114;2023-07-08T13:43:13;101619.41;;;36.23;28.53
64886;BME280;51514;52.206;5.114;2023-07-08T13:45:43;101625.16;;;36.13;27.79
64886;BME280;51514;52.206;5.114;2023-07-08T13:48:18;101613.13;;;36.12;27.30
64886;BME280;51514;52.206;5.114;2023-07-08T13:50:50;101615.09;;;36.12;27.18
64886;BME280;51514;52.206;5.114;2023-07-08T13:53:23;101613.75;;;36.09;27.33